sensor_id;sensor_type;location;lat;lon;timestamp;temperature;humidity
5136;DHT22;2586;48.710;9.202;2022-08-01T00:00:01;20.30;1.00
5136;DHT22;2586;48.710;9.202;2022-08-01T00:02:29;20.30;1.00
5136;DHT22;2586;48.710;9.202;2022-08-01T00:04:56;20.30;1.00
5136;DHT22;2586;48.710;9.202;2022-08-01T00:07:21;20.20;1.00
5136;DHT22;2586;48.710;9.202;2022-08-01T00:09:47;20.20;1.00
5136;DHT22;2586;48.710;9.202;2022-08-01T00:12:15;20.20;1.00
5136;DHT22;2586;48.710;9.202;2022-08-01T00:14:41;20.10;1.00
5136;DHT22;2586;48.710;9.202;2022-08-01T00:17:07;20.00;1.00
5136;DHT22;2586;48.710;9.202;2022-08-01T00:19:33;20.00;1.00
5136;DHT22;2586;48.710;9.202;2022-08-01T00:21:59;19.90;1.00
5136;DHT22;2586;48.710;9.202;2022-08-01T00:24:24;19.80;4.70
5136;DHT22;2586;48.710;9.202;2022-08-01T00:26:50;19.80;25.10
5136;DHT22;2586;48.710;9.202;2022-08-01T00:29:15;19.70;37.90
5136;DHT22;2586;48.710;9.202;2022-08-01T00:31:41;19.70;87.20
5136;DHT22;2586;48.710;9.202;2022-08-01T00:34:06;19.60;97.70
5136;DHT22;2586;48.710;9.202;2022-08-01T00:36:32;19.60;91.20
5136;DHT22;2586;48.710;9.202;2022-08-01T00:38:58;19.60;99.90
5136;DHT22;2586;48.710;9.202;2022-08-01T00:41:23;19.60;99.90
5136;DHT22;2586;48.710;9.202;2022-08-01T00:43:49;19.60;98.90
5136;DHT22;2586;48.710;9.202;2022-08-01T00:46:14;19.50;99.90
5136;DHT22;2586;48.710;9.202;2022-08-01T00:48:40;19.50;99.90
5136;DHT22;2586;48.710;9.202;2022-08-01T00:51:07;19.40;99.90
5136;DHT22;2586;48.710;9.202;2022-08-01T00:53:32;19.50;99.90
5136;DHT22;2586;48.710;9.202;2022-08-01T00:55:59;19.40;99.90
5136;DHT22;2586;48.710;9.202;2022-08-01T00:58:25;19.30;99.90
5136;DHT22;2586;48.710;9.202;2022-08-01T01:00:50;19.20;99.90
5136;DHT22;2586;48.710;9.202;2022-08-01T01:03:16;19.00;99.90
5136;DHT22;2586;48.710;9.202;2022-08-01T01:06:41;18.90;99.90
5136;DHT22;2586;48.710;9.202;2022-08-01T01:08:46;18.90;99.90
5136;DHT22;2586;48.710;9.202;2022-08-01T01:11:28;18.90;99.90
5136;DHT22;2586;48.710;9.202;2022-08-01T01:13:59;18.80;99.90
5136;DHT22;2586;48.710;9.202;2022-08-01T01:16:26;18.80;99.90
5136;DHT22;2586;48.710;9.202;2022-08-01T01:18:59;18.80;99.90
5136;DHT22;2586;48.710;9.202;2022-08-01T01:24:37;18.70;99.90
5136;DHT22;2586;48.710;9.202;2022-08-01T01:27:39;18.70;99.90
5136;DHT22;2586;48.710;9.202;2022-08-01T01:30:08;18.70;99.90
5136;DHT22;2586;48.710;9.202;2022-08-01T01:32:44;18.70;99.90
5136;DHT22;2586;48.710;9.202;2022-08-01T01:35:17;18.70;99.90
5136;DHT22;2586;48.710;9.202;2022-08-01T01:37:47;18.60;1.00
5136;DHT22;2586;48.710;9.202;2022-08-01T01:40:14;18.70;1.00
5136;DHT22;2586;48.710;9.202;2022-08-01T01:42:41;18.70;1.00
5136;DHT22;2586;48.710;9.202;2022-08-01T01:45:08;18.70;1.00
5136;DHT22;2586;48.710;9.202;2022-08-01T01:47:34;18.70;1.00
5136;DHT22;2586;48.710;9.202;2022-08-01T01:50:02;18.60;1.00
5136;DHT22;2586;48.710;9.202;2022-08-01T01:52:29;18.70;1.00
5136;DHT22;2586;48.710;9.202;2022-08-01T01:54:57;18.70;99.90
5136;DHT22;2586;48.710;9.202;2022-08-01T01:57:24;18.90;99.90
5136;DHT22;2586;48.710;9.202;2022-08-01T01:59:51;18.90;99.90
5136;DHT22;2586;48.710;9.202;2022-08-01T02:02:17;18.90;99.90
5136;DHT22;2586;48.710;9.202;2022-08-01T02:04:46;19.00;99.90
5136;DHT22;2586;48.710;9.202;2022-08-01T02:07:20;19.00;99.90
5136;DHT22;2586;48.710;9.202;2022-08-01T02:09:47;19.00;99.90
5136;DHT22;2586;48.710;9.202;2022-08-01T02:12:14;19.00;1.00
5136;DHT22;2586;48.710;9.202;2022-08-01T02:14:42;18.90;1.00
5136;DHT22;2586;48.710;9.202;2022-08-01T02:17:11;18.80;1.00
5136;DHT22;2586;48.710;9.202;2022-08-01T02:19:38;18.80;1.00
5136;DHT22;2586;48.710;9.202;2022-08-01T02:22:14;18.80;1.00
5136;DHT22;2586;48.710;9.202;2022-08-01T02:25:20;18.80;1.00
5136;DHT22;2586;48.710;9.202;2022-08-01T02:28:20;18.80;1.00
5136;DHT22;2586;48.710;9.202;2022-08-01T02:30:50;18.90;99.90
5136;DHT22;2586;48.710;9.202;2022-08-01T02:33:23;18.90;99.90
5136;DHT22;2586;48.710;9.202;2022-08-01T02:35:54;18.80;1.00
5136;DHT22;2586;48.710;9.202;2022-08-01T02:38:23;18.80;1.00
5136;DHT22;2586;48.710;9.202;2022-08-01T02:40:50;18.90;1.00
5136;DHT22;2586;48.710;9.202;2022-08-01T02:43:21;18.90;99.90
5136;DHT22;2586;48.710;9.202;2022-08-01T02:45:51;18.90;99.90
5136;DHT22;2586;48.710;9.202;2022-08-01T02:48:19;18.80;1.00
5136;DHT22;2586;48.710;9.202;2022-08-01T02:50:48;18.70;1.00
5136;DHT22;2586;48.710;9.202;2022-08-01T02:53:17;18.70;1.00
5136;DHT22;2586;48.710;9.202;2022-08-01T02:55:44;18.70;1.00
5136;DHT22;2586;48.710;9.202;2022-08-01T02:58:15;18.60;1.00
5136;DHT22;2586;48.710;9.202;2022-08-01T03:00:43;18.50;1.00
5136;DHT22;2586;48.710;9.202;2022-08-01T03:03:10;18.40;1.00
5136;DHT22;2586;48.710;9.202;2022-08-01T03:05:37;18.30;1.00
5136;DHT22;2586;48.710;9.202;2022-08-01T03:08:08;18.30;1.00
5136;DHT22;2586;48.710;9.202;2022-08-01T03:10:37;18.30;1.00
5136;DHT22;2586;48.710;9.202;2022-08-01T03:13:05;18.40;1.00
5136;DHT22;2586;48.710;9.202;2022-08-01T03:15:33;18.30;1.00
5136;DHT22;2586;48.710;9.202;2022-08-01T03:18:01;18.20;1.00
5136;DHT22;2586;48.710;9.202;2022-08-01T03:20:30;18.10;6.80
5136;DHT22;2586;48.710;9.202;2022-08-01T03:23:01;18.10;99.90
5136;DHT22;2586;48.710;9.202;2022-08-01T03:25:28;18.00;99.90
5136;DHT22;2586;48.710;9.202;2022-08-01T03:27:58;17.90;99.90
5136;DHT22;2586;48.710;9.202;2022-08-01T03:30:25;17.90;99.90
5136;DHT22;2586;48.710;9.202;2022-08-01T03:32:52;18.00;99.90
5136;DHT22;2586;48.710;9.202;2022-08-01T03:35:18;18.00;63.20
5136;DHT22;2586;48.710;9.202;2022-08-01T03:37:52;18.10;54.10
5136;DHT22;2586;48.710;9.202;2022-08-01T03:40:41;18.10;79.20
5136;DHT22;2586;48.710;9.202;2022-08-01T03:43:18;18.10;13.50
5136;DHT22;2586;48.710;9.202;2022-08-01T03:45:48;18.20;16.00
5136;DHT22;2586;48.710;9.202;2022-08-01T03:48:18;18.20;99.90
5136;DHT22;2586;48.710;9.202;2022-08-01T03:50:46;18.20;99.90
5136;DHT22;2586;48.710;9.202;2022-08-01T03:53:13;18.20;99.90
5136;DHT22;2586;48.710;9.202;2022-08-01T03:55:41;18.10;99.90
5136;DHT22;2586;48.710;9.202;2022-08-01T03:58:09;18.10;99.90
5136;DHT22;2586;48.710;9.202;2022-08-01T04:00:37;18.20;99.90
5136;DHT22;2586;48.710;9.202;2022-08-01T04:03:07;18.20;99.90
5136;DHT22;2586;48.710;9.202;2022-08-01T04:05:33;18.10;99.90
5136;DHT22;2586;48.710;9.202;2022-08-01T04:07:59;18.10;99.90
5136;DHT22;2586;48.710;9.202;2022-08-01T04:10:27;18.00;99.90
5136;DHT22;2586;48.710;9.202;2022-08-01T04:12:53;18.00;1.00
5136;DHT22;2586;48.710;9.202;2022-08-01T04:15:19;18.00;1.00
5136;DHT22;2586;48.710;9.202;2022-08-01T04:17:46;18.00;99.90
5136;DHT22;2586;48.710;9.202;2022-08-01T04:20:12;18.00;1.00
5136;DHT22;2586;48.710;9.202;2022-08-01T04:22:38;18.00;1.00
5136;DHT22;2586;48.710;9.202;2022-08-01T04:25:12;18.10;1.00
5136;DHT22;2586;48.710;9.202;2022-08-01T04:27:42;18.10;1.00
5136;DHT22;2586;48.710;9.202;2022-08-01T04:30:10;18.10;1.00
5136;DHT22;2586;48.710;9.202;2022-08-01T04:32:38;18.10;1.00
5136;DHT22;2586;48.710;9.202;2022-08-01T04:35:07;18.10;1.00
5136;DHT22;2586;48.710;9.202;2022-08-01T04:37:35;18.20;1.00
5136;DHT22;2586;48.710;9.202;2022-08-01T04:40:04;18.20;5.00
5136;DHT22;2586;48.710;9.202;2022-08-01T04:42:32;18.30;1.00
5136;DHT22;2586;48.710;9.202;2022-08-01T04:44:58;18.40;1.00
5136;DHT22;2586;48.710;9.202;2022-08-01T04:47:25;18.40;1.00
5136;DHT22;2586;48.710;9.202;2022-08-01T04:49:51;18.50;1.00
5136;DHT22;2586;48.710;9.202;2022-08-01T04:52:17;18.60;1.00
5136;DHT22;2586;48.710;9.202;2022-08-01T04:54:43;18.60;1.00
5136;DHT22;2586;48.710;9.202;2022-08-01T04:57:09;18.70;1.00
5136;DHT22;2586;48.710;9.202;2022-08-01T04:59:36;18.70;1.00
5136;DHT22;2586;48.710;9.202;2022-08-01T05:02:11;18.80;1.00
5136;DHT22;2586;48.710;9.202;2022-08-01T05:04:38;18.90;99.90
5136;DHT22;2586;48.710;9.202;2022-08-01T05:07:05;18.90;99.90
5136;DHT22;2586;48.710;9.202;2022-08-01T05:09:31;18.90;99.90
5136;DHT22;2586;48.710;9.202;2022-08-01T05:12:00;18.90;1.00
5136;DHT22;2586;48.710;9.202;2022-08-01T05:14:26;18.90;1.00
5136;DHT22;2586;48.710;9.202;2022-08-01T05:16:52;18.90;99.90
5136;DHT22;2586;48.710;9.202;2022-08-01T05:19:19;19.00;99.90
5136;DHT22;2586;48.710;9.202;2022-08-01T05:21:45;19.10;99.90
5136;DHT22;2586;48.710;9.202;2022-08-01T05:24:10;19.20;99.90
5136;DHT22;2586;48.710;9.202;2022-08-01T05:26:36;19.30;99.90
5136;DHT22;2586;48.710;9.202;2022-08-01T05:29:02;19.40;99.90
5136;DHT22;2586;48.710;9.202;2022-08-01T05:31:28;19.40;99.90
5136;DHT22;2586;48.710;9.202;2022-08-01T05:33:54;19.50;99.90
5136;DHT22;2586;48.710;9.202;2022-08-01T05:36:19;19.60;99.90
5136;DHT22;2586;48.710;9.202;2022-08-01T05:38:45;19.70;99.90
5136;DHT22;2586;48.710;9.202;2022-08-01T05:41:11;19.90;99.90
5136;DHT22;2586;48.710;9.202;2022-08-01T05:43:36;19.90;99.90
5136;DHT22;2586;48.710;9.202;2022-08-01T05:46:02;19.90;99.90
5136;DHT22;2586;48.710;9.202;2022-08-01T05:48:28;20.00;99.90
5136;DHT22;2586;48.710;9.202;2022-08-01T05:50:54;20.00;99.90
5136;DHT22;2586;48.710;9.202;2022-08-01T05:53:19;20.10;69.80
5136;DHT22;2586;48.710;9.202;2022-08-01T05:55:45;20.20;99.90
5136;DHT22;2586;48.710;9.202;2022-08-01T05:58:11;20.30;1.00
5136;DHT22;2586;48.710;9.202;2022-08-01T06:00:36;20.50;1.00
5136;DHT22;2586;48.710;9.202;2022-08-01T06:03:02;20.60;1.00
5136;DHT22;2586;48.710;9.202;2022-08-01T06:05:27;20.70;1.00
5136;DHT22;2586;48.710;9.202;2022-08-01T06:07:53;20.80;1.00
5136;DHT22;2586;48.710;9.202;2022-08-01T06:10:19;20.80;1.00
5136;DHT22;2586;48.710;9.202;2022-08-01T06:12:45;20.80;1.00
5136;DHT22;2586;48.710;9.202;2022-08-01T06:15:11;21.00;1.00
5136;DHT22;2586;48.710;9.202;2022-08-01T06:17:36;21.10;1.00
5136;DHT22;2586;48.710;9.202;2022-08-01T06:20:03;21.20;1.00
5136;DHT22;2586;48.710;9.202;2022-08-01T06:22:29;21.30;1.00
5136;DHT22;2586;48.710;9.202;2022-08-01T06:24:54;21.40;99.90
5136;DHT22;2586;48.710;9.202;2022-08-01T06:27:20;21.60;99.90
5136;DHT22;2586;48.710;9.202;2022-08-01T06:29:46;21.70;1.00
5136;DHT22;2586;48.710;9.202;2022-08-01T06:32:11;21.80;99.90
5136;DHT22;2586;48.710;9.202;2022-08-01T06:34:37;21.90;99.90
5136;DHT22;2586;48.710;9.202;2022-08-01T06:37:02;22.00;99.90
5136;DHT22;2586;48.710;9.202;2022-08-01T06:39:28;22.00;99.90
5136;DHT22;2586;48.710;9.202;2022-08-01T06:41:53;22.10;99.90
5136;DHT22;2586;48.710;9.202;2022-08-01T06:44:19;22.20;99.90
5136;DHT22;2586;48.710;9.202;2022-08-01T06:46:45;22.20;99.90
5136;DHT22;2586;48.710;9.202;2022-08-01T06:49:10;22.30;99.90
5136;DHT22;2586;48.710;9.202;2022-08-01T06:51:36;22.30;99.90
5136;DHT22;2586;48.710;9.202;2022-08-01T06:54:01;22.40;99.90
5136;DHT22;2586;48.710;9.202;2022-08-01T06:56:27;22.50;99.90
5136;DHT22;2586;48.710;9.202;2022-08-01T06:58:52;22.60;99.90
5136;DHT22;2586;48.710;9.202;2022-08-01T07:01:18;22.60;99.90
5136;DHT22;2586;48.710;9.202;2022-08-01T07:03:44;22.70;99.90
5136;DHT22;2586;48.710;9.202;2022-08-01T07:06:09;22.90;99.90
5136;DHT22;2586;48.710;9.202;2022-08-01T07:08:36;23.10;99.90
5136;DHT22;2586;48.710;9.202;2022-08-01T07:11:01;23.10;99.90
5136;DHT22;2586;48.710;9.202;2022-08-01T07:13:28;23.00;99.90
5136;DHT22;2586;48.710;9.202;2022-08-01T07:15:56;23.10;99.90
5136;DHT22;2586;48.710;9.202;2022-08-01T07:18:22;23.10;99.90
5136;DHT22;2586;48.710;9.202;2022-08-01T07:20:48;23.10;99.90
5136;DHT22;2586;48.710;9.202;2022-08-01T07:23:14;23.00;99.90
5136;DHT22;2586;48.710;9.202;2022-08-01T07:25:40;23.10;99.90
5136;DHT22;2586;48.710;9.202;2022-08-01T07:28:06;23.20;99.90
5136;DHT22;2586;48.710;9.202;2022-08-01T07:30:31;23.40;99.90
5136;DHT22;2586;48.710;9.202;2022-08-01T07:32:57;23.70;99.90
5136;DHT22;2586;48.710;9.202;2022-08-01T07:35:23;24.00;99.90
5136;DHT22;2586;48.710;9.202;2022-08-01T07:37:48;24.00;65.70
5136;DHT22;2586;48.710;9.202;2022-08-01T07:40:15;24.00;53.30
5136;DHT22;2586;48.710;9.202;2022-08-01T07:42:41;23.70;62.10
5136;DHT22;2586;48.710;9.202;2022-08-01T07:45:09;23.70;84.70
5136;DHT22;2586;48.710;9.202;2022-08-01T07:47:35;23.40;51.30
5136;DHT22;2586;48.710;9.202;2022-08-01T07:50:03;23.40;72.60
5136;DHT22;2586;48.710;9.202;2022-08-01T07:52:29;23.50;69.80
5136;DHT22;2586;48.710;9.202;2022-08-01T07:54:55;23.80;66.30
5136;DHT22;2586;48.710;9.202;2022-08-01T07:57:22;23.90;45.20
5136;DHT22;2586;48.710;9.202;2022-08-01T07:59:48;24.10;37.40
5136;DHT22;2586;48.710;9.202;2022-08-01T08:02:14;24.10;35.40
5136;DHT22;2586;48.710;9.202;2022-08-01T08:04:39;24.20;22.10
5136;DHT22;2586;48.710;9.202;2022-08-01T08:07:05;24.10;24.60
5136;DHT22;2586;48.710;9.202;2022-08-01T08:09:30;24.40;28.60
5136;DHT22;2586;48.710;9.202;2022-08-01T08:11:56;24.90;19.10
5136;DHT22;2586;48.710;9.202;2022-08-01T08:14:22;25.10;10.20
5136;DHT22;2586;48.710;9.202;2022-08-01T08:16:49;25.50;5.00
5136;DHT22;2586;48.710;9.202;2022-08-01T08:19:15;25.90;1.00
5136;DHT22;2586;48.710;9.202;2022-08-01T08:21:41;26.20;1.00
5136;DHT22;2586;48.710;9.202;2022-08-01T08:24:07;26.30;1.00
5136;DHT22;2586;48.710;9.202;2022-08-01T08:26:46;26.10;1.00
5136;DHT22;2586;48.710;9.202;2022-08-01T08:29:12;26.30;1.00
5136;DHT22;2586;48.710;9.202;2022-08-01T08:31:37;26.10;1.00
5136;DHT22;2586;48.710;9.202;2022-08-01T08:34:03;26.10;1.00
5136;DHT22;2586;48.710;9.202;2022-08-01T08:36:28;26.50;1.00
5136;DHT22;2586;48.710;9.202;2022-08-01T08:38:54;26.10;1.00
5136;DHT22;2586;48.710;9.202;2022-08-01T08:41:21;26.10;1.00
5136;DHT22;2586;48.710;9.202;2022-08-01T08:43:47;26.50;1.00
5136;DHT22;2586;48.710;9.202;2022-08-01T08:46:14;26.60;1.00
5136;DHT22;2586;48.710;9.202;2022-08-01T08:48:41;26.40;1.00
5136;DHT22;2586;48.710;9.202;2022-08-01T08:51:08;26.10;1.00
5136;DHT22;2586;48.710;9.202;2022-08-01T08:53:38;26.00;1.00
5136;DHT22;2586;48.710;9.202;2022-08-01T08:56:06;26.10;1.00
5136;DHT22;2586;48.710;9.202;2022-08-01T08:58:32;26.20;1.00
5136;DHT22;2586;48.710;9.202;2022-08-01T09:01:05;26.30;1.00
5136;DHT22;2586;48.710;9.202;2022-08-01T09:03:31;26.50;1.00
5136;DHT22;2586;48.710;9.202;2022-08-01T09:05:57;26.80;1.00
5136;DHT22;2586;48.710;9.202;2022-08-01T09:08:22;26.90;1.00
5136;DHT22;2586;48.710;9.202;2022-08-01T09:10:48;27.40;1.00
5136;DHT22;2586;48.710;9.202;2022-08-01T09:13:14;28.00;1.00
5136;DHT22;2586;48.710;9.202;2022-08-01T09:15:42;28.10;1.00
5136;DHT22;2586;48.710;9.202;2022-08-01T09:18:25;27.60;1.00
5136;DHT22;2586;48.710;9.202;2022-08-01T09:23:32;27.40;1.00
5136;DHT22;2586;48.710;9.202;2022-08-01T09:25:58;27.60;1.00
5136;DHT22;2586;48.710;9.202;2022-08-01T09:28:28;27.20;1.00
5136;DHT22;2586;48.710;9.202;2022-08-01T09:30:58;26.50;1.00
5136;DHT22;2586;48.710;9.202;2022-08-01T09:33:24;26.40;1.00
5136;DHT22;2586;48.710;9.202;2022-08-01T09:35:57;26.30;1.00
5136;DHT22;2586;48.710;9.202;2022-08-01T09:38:25;26.20;1.00
5136;DHT22;2586;48.710;9.202;2022-08-01T09:40:56;26.20;1.00
5136;DHT22;2586;48.710;9.202;2022-08-01T09:43:27;26.40;1.00
5136;DHT22;2586;48.710;9.202;2022-08-01T09:45:54;26.70;1.00
5136;DHT22;2586;48.710;9.202;2022-08-01T09:48:21;26.70;1.00
5136;DHT22;2586;48.710;9.202;2022-08-01T09:50:57;27.10;1.00
5136;DHT22;2586;48.710;9.202;2022-08-01T09:53:23;27.60;1.00
5136;DHT22;2586;48.710;9.202;2022-08-01T09:55:49;28.10;1.00
5136;DHT22;2586;48.710;9.202;2022-08-01T09:58:17;28.70;1.00
5136;DHT22;2586;48.710;9.202;2022-08-01T10:00:57;28.90;1.00
5136;DHT22;2586;48.710;9.202;2022-08-01T10:03:26;28.90;1.00
5136;DHT22;2586;48.710;9.202;2022-08-01T10:05:52;28.90;1.00
5136;DHT22;2586;48.710;9.202;2022-08-01T10:08:19;28.10;1.00
5136;DHT22;2586;48.710;9.202;2022-08-01T10:11:11;27.80;1.00
5136;DHT22;2586;48.710;9.202;2022-08-01T10:13:37;27.70;1.00
5136;DHT22;2586;48.710;9.202;2022-08-01T10:16:03;27.50;1.00
5136;DHT22;2586;48.710;9.202;2022-08-01T10:18:32;27.40;1.00
5136;DHT22;2586;48.710;9.202;2022-08-01T10:21:02;27.70;1.00
5136;DHT22;2586;48.710;9.202;2022-08-01T10:23:33;28.60;1.00
5136;DHT22;2586;48.710;9.202;2022-08-01T10:26:05;28.90;1.00
5136;DHT22;2586;48.710;9.202;2022-08-01T10:28:37;29.50;1.00
5136;DHT22;2586;48.710;9.202;2022-08-01T10:31:03;29.80;1.00
5136;DHT22;2586;48.710;9.202;2022-08-01T10:33:30;30.30;1.00
5136;DHT22;2586;48.710;9.202;2022-08-01T10:35:57;30.70;1.00
5136;DHT22;2586;48.710;9.202;2022-08-01T10:38:22;30.90;1.00
5136;DHT22;2586;48.710;9.202;2022-08-01T10:40:51;30.70;1.00
5136;DHT22;2586;48.710;9.202;2022-08-01T10:43:18;30.70;1.00
5136;DHT22;2586;48.710;9.202;2022-08-01T10:45:44;29.90;1.00
5136;DHT22;2586;48.710;9.202;2022-08-01T10:48:16;30.10;1.00
5136;DHT22;2586;48.710;9.202;2022-08-01T10:50:48;29.60;1.00
5136;DHT22;2586;48.710;9.202;2022-08-01T10:53:23;29.50;1.00
5136;DHT22;2586;48.710;9.202;2022-08-01T10:56:01;30.10;1.00
5136;DHT22;2586;48.710;9.202;2022-08-01T10:58:30;30.70;1.00
5136;DHT22;2586;48.710;9.202;2022-08-01T11:06:55;32.10;1.00
5136;DHT22;2586;48.710;9.202;2022-08-01T11:09:30;32.50;1.00
5136;DHT22;2586;48.710;9.202;2022-08-01T11:14:31;32.70;1.00
5136;DHT22;2586;48.710;9.202;2022-08-01T11:17:35;32.00;1.00
5136;DHT22;2586;48.710;9.202;2022-08-01T11:30:50;29.20;1.00
5136;DHT22;2586;48.710;9.202;2022-08-01T11:33:18;28.30;1.00
5136;DHT22;2586;48.710;9.202;2022-08-01T11:36:20;27.80;1.00
5136;DHT22;2586;48.710;9.202;2022-08-01T11:38:48;27.30;1.00
5136;DHT22;2586;48.710;9.202;2022-08-01T11:41:25;27.20;1.00
5136;DHT22;2586;48.710;9.202;2022-08-01T11:52:29;26.60;1.00
5136;DHT22;2586;48.710;9.202;2022-08-01T11:57:30;26.50;1.00
5136;DHT22;2586;48.710;9.202;2022-08-01T11:59:57;26.50;1.00
5136;DHT22;2586;48.710;9.202;2022-08-01T12:02:31;26.50;1.00
5136;DHT22;2586;48.710;9.202;2022-08-01T12:05:05;26.40;1.00
5136;DHT22;2586;48.710;9.202;2022-08-01T12:07:32;26.50;1.00
5136;DHT22;2586;48.710;9.202;2022-08-01T12:10:11;26.50;1.00
5136;DHT22;2586;48.710;9.202;2022-08-01T12:12:49;26.40;1.00
5136;DHT22;2586;48.710;9.202;2022-08-01T12:15:15;26.50;1.00
5136;DHT22;2586;48.710;9.202;2022-08-01T12:17:56;26.60;1.00
5136;DHT22;2586;48.710;9.202;2022-08-01T12:20:23;26.50;1.00
5136;DHT22;2586;48.710;9.202;2022-08-01T12:22:53;26.30;1.00
5136;DHT22;2586;48.710;9.202;2022-08-01T12:25:19;26.30;1.00
5136;DHT22;2586;48.710;9.202;2022-08-01T12:27:46;26.40;1.00
5136;DHT22;2586;48.710;9.202;2022-08-01T12:30:18;26.50;1.00
5136;DHT22;2586;48.710;9.202;2022-08-01T12:32:46;27.10;1.00
5136;DHT22;2586;48.710;9.202;2022-08-01T12:35:19;27.20;1.00
5136;DHT22;2586;48.710;9.202;2022-08-01T12:37:53;27.20;1.00
5136;DHT22;2586;48.710;9.202;2022-08-01T12:40:20;27.20;1.00
5136;DHT22;2586;48.710;9.202;2022-08-01T12:42:52;27.00;1.00
5136;DHT22;2586;48.710;9.202;2022-08-01T12:45:20;27.00;1.00
5136;DHT22;2586;48.710;9.202;2022-08-01T12:47:47;27.10;1.00
5136;DHT22;2586;48.710;9.202;2022-08-01T12:50:15;28.20;1.00
5136;DHT22;2586;48.710;9.202;2022-08-01T12:52:41;28.40;1.00
5136;DHT22;2586;48.710;9.202;2022-08-01T12:55:13;28.00;1.00
5136;DHT22;2586;48.710;9.202;2022-08-01T12:57:42;28.20;1.00
5136;DHT22;2586;48.710;9.202;2022-08-01T13:00:15;29.30;1.00
5136;DHT22;2586;48.710;9.202;2022-08-01T13:02:43;29.80;1.00
5136;DHT22;2586;48.710;9.202;2022-08-01T13:05:09;29.70;1.00
5136;DHT22;2586;48.710;9.202;2022-08-01T13:07:47;29.90;1.00
5136;DHT22;2586;48.710;9.202;2022-08-01T13:10:14;30.60;1.00
5136;DHT22;2586;48.710;9.202;2022-08-01T13:12:42;30.10;1.00
5136;DHT22;2586;48.710;9.202;2022-08-01T13:17:42;29.50;1.00
5136;DHT22;2586;48.710;9.202;2022-08-01T13:20:08;29.50;1.00
5136;DHT22;2586;48.710;9.202;2022-08-01T13:22:37;29.90;1.00
5136;DHT22;2586;48.710;9.202;2022-08-01T13:25:16;30.90;1.00
5136;DHT22;2586;48.710;9.202;2022-08-01T13:27:42;31.50;1.00
5136;DHT22;2586;48.710;9.202;2022-08-01T13:30:18;30.80;1.00
5136;DHT22;2586;48.710;9.202;2022-08-01T13:32:59;30.20;1.00
5136;DHT22;2586;48.710;9.202;2022-08-01T13:35:25;29.50;1.00
5136;DHT22;2586;48.710;9.202;2022-08-01T13:37:51;29.00;1.00
5136;DHT22;2586;48.710;9.202;2022-08-01T13:40:27;28.50;1.00
5136;DHT22;2586;48.710;9.202;2022-08-01T13:42:53;28.30;1.00
5136;DHT22;2586;48.710;9.202;2022-08-01T13:45:20;28.00;1.00
5136;DHT22;2586;48.710;9.202;2022-08-01T13:47:46;27.90;1.00
5136;DHT22;2586;48.710;9.202;2022-08-01T13:50:12;28.00;1.00
5136;DHT22;2586;48.710;9.202;2022-08-01T13:52:37;28.40;1.00
5136;DHT22;2586;48.710;9.202;2022-08-01T13:55:03;29.00;1.00
5136;DHT22;2586;48.710;9.202;2022-08-01T13:57:29;29.50;1.00
5136;DHT22;2586;48.710;9.202;2022-08-01T13:59:55;30.20;1.00
5136;DHT22;2586;48.710;9.202;2022-08-01T14:02:20;30.20;1.00
5136;DHT22;2586;48.710;9.202;2022-08-01T14:04:46;29.70;1.00
5136;DHT22;2586;48.710;9.202;2022-08-01T14:07:12;29.40;1.00
5136;DHT22;2586;48.710;9.202;2022-08-01T14:09:38;29.10;1.00
5136;DHT22;2586;48.710;9.202;2022-08-01T14:12:04;29.00;1.00
5136;DHT22;2586;48.710;9.202;2022-08-01T14:14:30;29.10;1.00
5136;DHT22;2586;48.710;9.202;2022-08-01T14:16:56;29.10;1.00
5136;DHT22;2586;48.710;9.202;2022-08-01T14:19:22;29.50;1.00
5136;DHT22;2586;48.710;9.202;2022-08-01T14:21:47;29.40;1.00
5136;DHT22;2586;48.710;9.202;2022-08-01T14:24:13;29.10;1.00
5136;DHT22;2586;48.710;9.202;2022-08-01T14:26:39;28.90;1.00
5136;DHT22;2586;48.710;9.202;2022-08-01T14:29:04;28.80;1.00
5136;DHT22;2586;48.710;9.202;2022-08-01T14:31:30;28.60;1.00
5136;DHT22;2586;48.710;9.202;2022-08-01T14:33:55;28.60;1.00
5136;DHT22;2586;48.710;9.202;2022-08-01T14:36:21;28.60;1.00
5136;DHT22;2586;48.710;9.202;2022-08-01T14:38:47;28.70;1.00
5136;DHT22;2586;48.710;9.202;2022-08-01T14:41:16;28.70;1.00
5136;DHT22;2586;48.710;9.202;2022-08-01T14:43:41;28.60;1.00
5136;DHT22;2586;48.710;9.202;2022-08-01T14:46:07;28.50;1.00
5136;DHT22;2586;48.710;9.202;2022-08-01T14:48:35;28.30;1.00
5136;DHT22;2586;48.710;9.202;2022-08-01T14:51:01;28.30;1.00
5136;DHT22;2586;48.710;9.202;2022-08-01T14:53:28;28.20;1.00
5136;DHT22;2586;48.710;9.202;2022-08-01T14:55:54;28.20;1.00
5136;DHT22;2586;48.710;9.202;2022-08-01T14:58:19;28.60;1.00
5136;DHT22;2586;48.710;9.202;2022-08-01T15:00:45;29.10;1.00
5136;DHT22;2586;48.710;9.202;2022-08-01T15:03:11;29.50;1.00
5136;DHT22;2586;48.710;9.202;2022-08-01T15:05:36;29.20;1.00
5136;DHT22;2586;48.710;9.202;2022-08-01T15:08:03;29.00;1.00
5136;DHT22;2586;48.710;9.202;2022-08-01T15:10:29;28.90;1.00
5136;DHT22;2586;48.710;9.202;2022-08-01T15:12:54;28.70;1.00
5136;DHT22;2586;48.710;9.202;2022-08-01T15:15:20;28.90;1.00
5136;DHT22;2586;48.710;9.202;2022-08-01T15:17:46;28.90;1.00
5136;DHT22;2586;48.710;9.202;2022-08-01T15:20:12;28.90;1.00
5136;DHT22;2586;48.710;9.202;2022-08-01T15:22:37;28.60;1.00
5136;DHT22;2586;48.710;9.202;2022-08-01T15:25:03;28.30;1.00
5136;DHT22;2586;48.710;9.202;2022-08-01T15:27:29;28.30;1.00
5136;DHT22;2586;48.710;9.202;2022-08-01T15:29:56;28.20;1.00
5136;DHT22;2586;48.710;9.202;2022-08-01T15:32:22;28.40;1.00
5136;DHT22;2586;48.710;9.202;2022-08-01T15:34:48;28.60;1.00
5136;DHT22;2586;48.710;9.202;2022-08-01T15:37:13;29.00;1.00
5136;DHT22;2586;48.710;9.202;2022-08-01T15:39:40;29.50;1.00
5136;DHT22;2586;48.710;9.202;2022-08-01T15:42:13;30.50;1.00
5136;DHT22;2586;48.710;9.202;2022-08-01T15:44:40;31.60;1.00
5136;DHT22;2586;48.710;9.202;2022-08-01T15:47:06;32.60;1.00
5136;DHT22;2586;48.710;9.202;2022-08-01T15:49:32;32.30;1.00
5136;DHT22;2586;48.710;9.202;2022-08-01T15:51:58;31.20;1.00
5136;DHT22;2586;48.710;9.202;2022-08-01T15:54:23;30.60;1.00
5136;DHT22;2586;48.710;9.202;2022-08-01T15:56:50;30.10;1.00
5136;DHT22;2586;48.710;9.202;2022-08-01T15:59:16;29.20;1.00
5136;DHT22;2586;48.710;9.202;2022-08-01T16:01:41;28.80;1.00
5136;DHT22;2586;48.710;9.202;2022-08-01T16:04:08;28.40;1.00
5136;DHT22;2586;48.710;9.202;2022-08-01T16:06:34;28.30;1.00
5136;DHT22;2586;48.710;9.202;2022-08-01T16:09:00;28.10;1.00
5136;DHT22;2586;48.710;9.202;2022-08-01T16:11:26;28.00;1.00
5136;DHT22;2586;48.710;9.202;2022-08-01T16:13:55;27.90;1.00
5136;DHT22;2586;48.710;9.202;2022-08-01T16:16:21;27.80;1.00
5136;DHT22;2586;48.710;9.202;2022-08-01T16:18:47;27.80;1.00
5136;DHT22;2586;48.710;9.202;2022-08-01T16:21:12;27.80;1.00
5136;DHT22;2586;48.710;9.202;2022-08-01T16:23:39;27.60;1.00
5136;DHT22;2586;48.710;9.202;2022-08-01T16:26:05;27.50;1.00
5136;DHT22;2586;48.710;9.202;2022-08-01T16:28:30;27.30;1.00
5136;DHT22;2586;48.710;9.202;2022-08-01T16:30:56;27.30;1.00
5136;DHT22;2586;48.710;9.202;2022-08-01T16:33:22;27.30;1.00
5136;DHT22;2586;48.710;9.202;2022-08-01T16:35:48;27.20;1.00
5136;DHT22;2586;48.710;9.202;2022-08-01T16:38:14;27.10;1.00
5136;DHT22;2586;48.710;9.202;2022-08-01T16:40:42;27.10;1.00
5136;DHT22;2586;48.710;9.202;2022-08-01T16:43:09;27.00;1.00
5136;DHT22;2586;48.710;9.202;2022-08-01T16:45:35;26.90;1.00
5136;DHT22;2586;48.710;9.202;2022-08-01T16:48:00;26.80;1.00
5136;DHT22;2586;48.710;9.202;2022-08-01T16:50:26;26.80;1.00
5136;DHT22;2586;48.710;9.202;2022-08-01T16:52:52;26.70;1.00
5136;DHT22;2586;48.710;9.202;2022-08-01T16:55:17;26.70;1.00